sensor_id;sensor_type;location;lat;lon;timestamp;P1;durP1;ratioP1;P2;durP2;ratioP2
14611;SDS011;7392;52.078;11.650;2024-02-21T00:02:22;10.63;;;3.83;;
14611;SDS011;7392;52.078;11.650;2024-02-21T00:04:51;7.80;;;3.67;;
14611;SDS011;7392;52.078;11.650;2024-02-21T00:07:19;8.90;;;3.30;;
14611;SDS011;7392;52.078;11.650;2024-02-21T00:09:49;12.10;;;3.73;;
14611;SDS011;7392;52.078;11.650;2024-02-21T00:12:17;12.83;;;3.87;;
14611;SDS011;7392;52.078;11.650;2024-02-21T00:14:45;8.37;;;3.50;;
14611;SDS011;7392;52.078;11.650;2024-02-21T00:17:14;11.00;;;3.73;;
14611;SDS011;7392;52.078;11.650;2024-02-21T00:19:43;10.17;;;3.37;;
14611;SDS011;7392;52.078;11.650;2024-02-21T00:22:11;11.97;;;3.23;;
14611;SDS011;7392;52.078;11.650;2024-02-21T00:24:40;10.27;;;3.50;;
14611;SDS011;7392;52.078;11.650;2024-02-21T00:27:09;8.80;;;3.43;;
14611;SDS011;7392;52.078;11.650;2024-02-21T00:29:37;7.60;;;3.13;;
14611;SDS011;7392;52.078;11.650;2024-02-21T00:32:05;7.33;;;3.00;;
14611;SDS011;7392;52.078;11.650;2024-02-21T00:34:33;5.27;;;3.20;;
14611;SDS011;7392;52.078;11.650;2024-02-21T00:37:02;7.33;;;3.00;;
14611;SDS011;7392;52.078;11.650;2024-02-21T00:39:30;7.17;;;3.10;;
14611;SDS011;7392;52.078;11.650;2024-02-21T00:41:57;7.47;;;2.93;;
14611;SDS011;7392;52.078;11.650;2024-02-21T00:44:27;5.83;;;2.80;;
14611;SDS011;7392;52.078;11.650;2024-02-21T00:46:55;4.67;;;2.83;;
14611;SDS011;7392;52.078;11.650;2024-02-21T00:49:23;8.07;;;3.03;;
14611;SDS011;7392;52.078;11.650;2024-02-21T00:51:51;4.40;;;2.73;;
14611;SDS011;7392;52.078;11.650;2024-02-21T00:54:19;3.10;;;2.20;;
14611;SDS011;7392;52.078;11.650;2024-02-21T00:56:47;7.93;;;2.70;;
14611;SDS011;7392;52.078;11.650;2024-02-21T00:59:14;5.47;;;2.53;;
14611;SDS011;7392;52.078;11.650;2024-02-21T01:01:44;5.00;;;2.77;;
14611;SDS011;7392;52.078;11.650;2024-02-21T01:04:12;6.73;;;2.70;;
14611;SDS011;7392;52.078;11.650;2024-02-21T01:06:40;5.67;;;2.77;;
14611;SDS011;7392;52.078;11.650;2024-02-21T01:09:10;4.50;;;3.07;;
14611;SDS011;7392;52.078;11.650;2024-02-21T01:11:39;7.37;;;3.07;;
14611;SDS011;7392;52.078;11.650;2024-02-21T01:14:06;7.00;;;3.33;;
14611;SDS011;7392;52.078;11.650;2024-02-21T01:16:34;5.33;;;2.90;;
14611;SDS011;7392;52.078;11.650;2024-02-21T01:19:04;4.67;;;2.87;;
14611;SDS011;7392;52.078;11.650;2024-02-21T01:21:31;6.77;;;2.97;;
14611;SDS011;7392;52.078;11.650;2024-02-21T01:23:59;6.80;;;3.20;;
14611;SDS011;7392;52.078;11.650;2024-02-21T01:26:27;6.47;;;2.60;;
14611;SDS011;7392;52.078;11.650;2024-02-21T01:28:55;4.00;;;2.67;;
14611;SDS011;7392;52.078;11.650;2024-02-21T01:31:23;6.53;;;3.07;;
14611;SDS011;7392;52.078;11.650;2024-02-21T01:33:51;6.17;;;2.53;;
14611;SDS011;7392;52.078;11.650;2024-02-21T01:36:20;5.17;;;2.40;;
14611;SDS011;7392;52.078;11.650;2024-02-21T01:38:48;5.77;;;2.70;;
14611;SDS011;7392;52.078;11.650;2024-02-21T01:41:16;11.63;;;4.20;;
14611;SDS011;7392;52.078;11.650;2024-02-21T01:43:44;7.07;;;3.37;;
14611;SDS011;7392;52.078;11.650;2024-02-21T01:46:12;8.80;;;3.60;;
14611;SDS011;7392;52.078;11.650;2024-02-21T01:48:40;9.13;;;4.10;;
14611;SDS011;7392;52.078;11.650;2024-02-21T01:51:09;7.63;;;3.63;;
14611;SDS011;7392;52.078;11.650;2024-02-21T01:53:39;10.20;;;4.50;;
14611;SDS011;7392;52.078;11.650;2024-02-21T01:56:11;11.17;;;4.73;;
14611;SDS011;7392;52.078;11.650;2024-02-21T01:58:40;14.60;;;4.83;;
14611;SDS011;7392;52.078;11.650;2024-02-21T02:01:10;9.80;;;4.17;;
14611;SDS011;7392;52.078;11.650;2024-02-21T02:03:38;15.87;;;5.10;;
14611;SDS011;7392;52.078;11.650;2024-02-21T02:06:07;12.77;;;4.80;;
14611;SDS011;7392;52.078;11.650;2024-02-21T02:08:34;12.30;;;5.20;;
14611;SDS011;7392;52.078;11.650;2024-02-21T02:11:04;11.77;;;4.37;;
14611;SDS011;7392;52.078;11.650;2024-02-21T02:13:33;14.50;;;4.90;;
14611;SDS011;7392;52.078;11.650;2024-02-21T02:16:02;11.70;;;4.40;;
14611;SDS011;7392;52.078;11.650;2024-02-21T02:18:30;11.93;;;4.80;;
14611;SDS011;7392;52.078;11.650;2024-02-21T02:20:58;11.93;;;4.73;;
14611;SDS011;7392;52.078;11.650;2024-02-21T02:23:27;11.00;;;4.97;;
14611;SDS011;7392;52.078;11.650;2024-02-21T02:25:56;10.83;;;4.97;;
14611;SDS011;7392;52.078;11.650;2024-02-21T02:28:25;8.30;;;4.33;;
14611;SDS011;7392;52.078;11.650;2024-02-21T02:30:53;8.13;;;4.07;;
14611;SDS011;7392;52.078;11.650;2024-02-21T02:33:21;11.77;;;4.80;;
14611;SDS011;7392;52.078;11.650;2024-02-21T02:35:49;12.33;;;5.13;;
14611;SDS011;7392;52.078;11.650;2024-02-21T02:38:17;8.50;;;4.57;;
14611;SDS011;7392;52.078;11.650;2024-02-21T02:40:46;9.30;;;4.50;;
14611;SDS011;7392;52.078;11.650;2024-02-21T02:43:15;12.67;;;5.30;;
14611;SDS011;7392;52.078;11.650;2024-02-21T02:45:43;14.10;;;4.60;;
14611;SDS011;7392;52.078;11.650;2024-02-21T02:48:11;10.03;;;4.70;;
14611;SDS011;7392;52.078;11.650;2024-02-21T02:50:39;8.23;;;3.87;;
14611;SDS011;7392;52.078;11.650;2024-02-21T02:53:06;9.77;;;4.30;;
14611;SDS011;7392;52.078;11.650;2024-02-21T02:55:34;10.63;;;5.37;;
14611;SDS011;7392;52.078;11.650;2024-02-21T02:58:04;11.40;;;4.77;;
14611;SDS011;7392;52.078;11.650;2024-02-21T03:00:32;10.63;;;5.40;;
14611;SDS011;7392;52.078;11.650;2024-02-21T03:03:02;9.30;;;4.23;;
14611;SDS011;7392;52.078;11.650;2024-02-21T03:05:31;10.93;;;4.87;;
14611;SDS011;7392;52.078;11.650;2024-02-21T03:07:59;11.80;;;5.40;;
14611;SDS011;7392;52.078;11.650;2024-02-21T03:10:27;10.90;;;5.03;;
14611;SDS011;7392;52.078;11.650;2024-02-21T03:12:55;12.37;;;5.57;;
14611;SDS011;7392;52.078;11.650;2024-02-21T03:15:24;12.60;;;5.10;;
14611;SDS011;7392;52.078;11.650;2024-02-21T03:17:52;7.73;;;4.80;;
14611;SDS011;7392;52.078;11.650;2024-02-21T03:20:21;12.30;;;5.40;;
14611;SDS011;7392;52.078;11.650;2024-02-21T03:22:49;9.90;;;5.60;;
14611;SDS011;7392;52.078;11.650;2024-02-21T03:25:17;10.87;;;5.63;;
14611;SDS011;7392;52.078;11.650;2024-02-21T03:27:46;11.33;;;5.30;;
14611;SDS011;7392;52.078;11.650;2024-02-21T03:30:14;12.27;;;6.13;;
14611;SDS011;7392;52.078;11.650;2024-02-21T03:32:43;14.37;;;6.67;;
14611;SDS011;7392;52.078;11.650;2024-02-21T03:35:11;9.03;;;6.00;;
14611;SDS011;7392;52.078;11.650;2024-02-21T03:37:39;15.50;;;6.77;;
14611;SDS011;7392;52.078;11.650;2024-02-21T03:40:08;14.97;;;6.57;;
14611;SDS011;7392;52.078;11.650;2024-02-21T03:42:37;11.60;;;6.67;;
14611;SDS011;7392;52.078;11.650;2024-02-21T03:45:05;14.93;;;7.07;;
14611;SDS011;7392;52.078;11.650;2024-02-21T03:47:34;12.63;;;7.17;;
14611;SDS011;7392;52.078;11.650;2024-02-21T03:50:03;15.17;;;6.93;;
14611;SDS011;7392;52.078;11.650;2024-02-21T03:52:32;12.83;;;6.33;;
14611;SDS011;7392;52.078;11.650;2024-02-21T03:55:00;12.60;;;6.13;;
14611;SDS011;7392;52.078;11.650;2024-02-21T03:57:28;10.47;;;5.90;;
14611;SDS011;7392;52.078;11.650;2024-02-21T03:59:56;12.80;;;5.90;;
14611;SDS011;7392;52.078;11.650;2024-02-21T04:02:24;11.43;;;5.60;;
14611;SDS011;7392;52.078;11.650;2024-02-21T04:04:51;14.03;;;6.13;;
14611;SDS011;7392;52.078;11.650;2024-02-21T04:07:21;11.10;;;5.87;;
14611;SDS011;7392;52.078;11.650;2024-02-21T04:09:49;10.63;;;5.63;;
14611;SDS011;7392;52.078;11.650;2024-02-21T04:12:17;13.00;;;6.30;;
14611;SDS011;7392;52.078;11.650;2024-02-21T04:14:45;14.33;;;6.73;;
14611;SDS011;7392;52.078;11.650;2024-02-21T04:17:13;10.50;;;6.03;;
14611;SDS011;7392;52.078;11.650;2024-02-21T04:19:41;10.63;;;6.93;;
14611;SDS011;7392;52.078;11.650;2024-02-21T04:22:20;14.83;;;7.10;;
14611;SDS011;7392;52.078;11.650;2024-02-21T04:25:09;10.53;;;7.27;;
14611;SDS011;7392;52.078;11.650;2024-02-21T04:27:43;12.87;;;7.17;;
14611;SDS011;7392;52.078;11.650;2024-02-21T04:30:12;12.13;;;6.97;;
14611;SDS011;7392;52.078;11.650;2024-02-21T04:32:44;13.90;;;7.37;;
14611;SDS011;7392;52.078;11.650;2024-02-21T04:35:18;8.80;;;6.90;;
14611;SDS011;7392;52.078;11.650;2024-02-21T04:37:48;11.97;;;7.00;;
14611;SDS011;7392;52.078;11.650;2024-02-21T04:40:21;13.57;;;7.70;;
14611;SDS011;7392;52.078;11.650;2024-02-21T04:42:55;13.57;;;7.50;;
14611;SDS011;7392;52.078;11.650;2024-02-21T04:45:27;15.73;;;7.83;;
14611;SDS011;7392;52.078;11.650;2024-02-21T04:48:00;13.00;;;7.60;;
14611;SDS011;7392;52.078;11.650;2024-02-21T04:50:31;10.90;;;7.03;;
14611;SDS011;7392;52.078;11.650;2024-02-21T04:53:01;15.47;;;7.87;;
14611;SDS011;7392;52.078;11.650;2024-02-21T04:55:35;13.17;;;7.53;;
14611;SDS011;7392;52.078;11.650;2024-02-21T04:58:04;11.87;;;8.23;;
14611;SDS011;7392;52.078;11.650;2024-02-21T05:00:37;15.57;;;7.30;;
14611;SDS011;7392;52.078;11.650;2024-02-21T05:03:09;10.93;;;7.07;;
14611;SDS011;7392;52.078;11.650;2024-02-21T05:05:42;10.57;;;7.37;;
14611;SDS011;7392;52.078;11.650;2024-02-21T05:08:15;10.83;;;6.80;;
14611;SDS011;7392;52.078;11.650;2024-02-21T05:10:51;9.70;;;6.07;;
14611;SDS011;7392;52.078;11.650;2024-02-21T05:13:19;9.47;;;5.83;;
14611;SDS011;7392;52.078;11.650;2024-02-21T05:15:48;9.40;;;6.17;;
14611;SDS011;7392;52.078;11.650;2024-02-21T05:18:18;12.33;;;6.70;;
14611;SDS011;7392;52.078;11.650;2024-02-21T05:20:52;9.10;;;5.33;;
14611;SDS011;7392;52.078;11.650;2024-02-21T05:23:22;9.80;;;5.60;;
14611;SDS011;7392;52.078;11.650;2024-02-21T05:25:51;12.53;;;5.37;;
14611;SDS011;7392;52.078;11.650;2024-02-21T05:28:22;9.87;;;5.23;;
14611;SDS011;7392;52.078;11.650;2024-02-21T05:30:52;11.07;;;5.03;;
14611;SDS011;7392;52.078;11.650;2024-02-21T05:33:21;9.53;;;5.00;;
14611;SDS011;7392;52.078;11.650;2024-02-21T05:35:54;9.93;;;6.07;;
14611;SDS011;7392;52.078;11.650;2024-02-21T05:38:26;10.13;;;6.17;;
14611;SDS011;7392;52.078;11.650;2024-02-21T05:40:57;11.30;;;7.13;;
14611;SDS011;7392;52.078;11.650;2024-02-21T05:43:26;16.30;;;7.73;;
14611;SDS011;7392;52.078;11.650;2024-02-21T05:45:57;11.17;;;7.93;;
14611;SDS011;7392;52.078;11.650;2024-02-21T05:48:26;10.30;;;7.07;;
14611;SDS011;7392;52.078;11.650;2024-02-21T05:50:55;14.73;;;8.10;;
14611;SDS011;7392;52.078;11.650;2024-02-21T05:53:31;12.00;;;7.33;;
14611;SDS011;7392;52.078;11.650;2024-02-21T05:56:04;11.77;;;7.30;;
14611;SDS011;7392;52.078;11.650;2024-02-21T05:58:40;9.97;;;6.83;;
14611;SDS011;7392;52.078;11.650;2024-02-21T06:01:15;10.20;;;6.90;;
14611;SDS011;7392;52.078;11.650;2024-02-21T06:03:47;10.83;;;7.70;;
14611;SDS011;7392;52.078;11.650;2024-02-21T06:06:16;12.37;;;7.13;;
14611;SDS011;7392;52.078;11.650;2024-02-21T06:08:49;14.73;;;8.03;;
14611;SDS011;7392;52.078;11.650;2024-02-21T06:11:18;10.73;;;7.33;;
14611;SDS011;7392;52.078;11.650;2024-02-21T06:13:49;9.20;;;6.60;;
14611;SDS011;7392;52.078;11.650;2024-02-21T06:16:20;11.87;;;8.23;;
14611;SDS011;7392;52.078;11.650;2024-02-21T06:18:54;13.70;;;7.93;;
14611;SDS011;7392;52.078;11.650;2024-02-21T06:21:23;13.63;;;7.87;;
14611;SDS011;7392;52.078;11.650;2024-02-21T06:24:04;13.13;;;8.03;;
14611;SDS011;7392;52.078;11.650;2024-02-21T06:26:35;15.00;;;8.13;;
14611;SDS011;7392;52.078;11.650;2024-02-21T06:29:03;13.63;;;8.20;;
14611;SDS011;7392;52.078;11.650;2024-02-21T06:31:32;15.53;;;8.30;;
14611;SDS011;7392;52.078;11.650;2024-02-21T06:34:12;12.47;;;8.07;;
14611;SDS011;7392;52.078;11.650;2024-02-21T06:36:41;17.77;;;9.33;;
14611;SDS011;7392;52.078;11.650;2024-02-21T06:39:15;16.93;;;8.97;;
14611;SDS011;7392;52.078;11.650;2024-02-21T06:41:45;14.57;;;8.70;;
14611;SDS011;7392;52.078;11.650;2024-02-21T06:44:15;18.63;;;8.93;;
14611;SDS011;7392;52.078;11.650;2024-02-21T06:46:51;13.20;;;8.83;;
14611;SDS011;7392;52.078;11.650;2024-02-21T06:49:21;16.37;;;8.83;;
14611;SDS011;7392;52.078;11.650;2024-02-21T06:51:50;13.27;;;7.80;;
14611;SDS011;7392;52.078;11.650;2024-02-21T06:54:24;9.27;;;7.00;;
14611;SDS011;7392;52.078;11.650;2024-02-21T06:56:52;11.93;;;8.10;;
14611;SDS011;7392;52.078;11.650;2024-02-21T06:59:21;13.57;;;8.60;;
14611;SDS011;7392;52.078;11.650;2024-02-21T07:01:53;15.83;;;8.47;;
14611;SDS011;7392;52.078;11.650;2024-02-21T07:04:31;11.43;;;8.00;;
14611;SDS011;7392;52.078;11.650;2024-02-21T07:07:00;12.30;;;8.47;;
14611;SDS011;7392;52.078;11.650;2024-02-21T07:09:38;13.50;;;8.27;;
14611;SDS011;7392;52.078;11.650;2024-02-21T07:12:07;10.90;;;7.70;;
14611;SDS011;7392;52.078;11.650;2024-02-21T07:14:39;15.47;;;8.77;;
14611;SDS011;7392;52.078;11.650;2024-02-21T07:17:11;12.07;;;9.07;;
14611;SDS011;7392;52.078;11.650;2024-02-21T07:19:43;12.67;;;8.03;;
14611;SDS011;7392;52.078;11.650;2024-02-21T07:22:27;12.27;;;7.77;;
14611;SDS011;7392;52.078;11.650;2024-02-21T07:25:01;9.10;;;6.93;;
14611;SDS011;7392;52.078;11.650;2024-02-21T07:27:34;15.37;;;7.87;;
14611;SDS011;7392;52.078;11.650;2024-02-21T07:30:06;11.17;;;7.63;;
14611;SDS011;7392;52.078;11.650;2024-02-21T07:32:42;13.23;;;7.63;;
14611;SDS011;7392;52.078;11.650;2024-02-21T07:35:15;15.20;;;8.53;;
14611;SDS011;7392;52.078;11.650;2024-02-21T07:37:44;14.20;;;8.50;;
14611;SDS011;7392;52.078;11.650;2024-02-21T07:40:15;14.27;;;8.40;;
14611;SDS011;7392;52.078;11.650;2024-02-21T07:42:47;15.43;;;8.33;;
14611;SDS011;7392;52.078;11.650;2024-02-21T07:45:18;12.23;;;8.33;;
14611;SDS011;7392;52.078;11.650;2024-02-21T07:47:53;13.10;;;8.33;;
14611;SDS011;7392;52.078;11.650;2024-02-21T07:50:25;15.23;;;7.40;;
14611;SDS011;7392;52.078;11.650;2024-02-21T07:53:06;12.57;;;7.77;;
14611;SDS011;7392;52.078;11.650;2024-02-21T07:55:36;12.67;;;6.70;;
14611;SDS011;7392;52.078;11.650;2024-02-21T07:58:05;12.17;;;7.33;;
14611;SDS011;7392;52.078;11.650;2024-02-21T08:00:38;10.70;;;7.03;;
14611;SDS011;7392;52.078;11.650;2024-02-21T08:03:12;10.67;;;7.27;;
14611;SDS011;7392;52.078;11.650;2024-02-21T08:05:42;13.83;;;6.60;;
14611;SDS011;7392;52.078;11.650;2024-02-21T08:08:14;12.47;;;7.20;;
14611;SDS011;7392;52.078;11.650;2024-02-21T08:10:52;10.87;;;7.00;;
14611;SDS011;7392;52.078;11.650;2024-02-21T08:13:24;9.97;;;6.87;;
14611;SDS011;7392;52.078;11.650;2024-02-21T08:15:54;15.03;;;6.47;;
14611;SDS011;7392;52.078;11.650;2024-02-21T08:18:29;11.37;;;6.50;;
14611;SDS011;7392;52.078;11.650;2024-02-21T08:20:58;11.80;;;7.00;;
14611;SDS011;7392;52.078;11.650;2024-02-21T08:23:28;12.20;;;7.10;;
14611;SDS011;7392;52.078;11.650;2024-02-21T08:26:04;9.30;;;6.53;;
14611;SDS011;7392;52.078;11.650;2024-02-21T08:28:34;11.10;;;7.20;;
14611;SDS011;7392;52.078;11.650;2024-02-21T08:31:03;12.47;;;7.70;;
14611;SDS011;7392;52.078;11.650;2024-02-21T08:33:32;10.53;;;6.87;;
14611;SDS011;7392;52.078;11.650;2024-02-21T08:36:01;12.10;;;6.73;;
14611;SDS011;7392;52.078;11.650;2024-02-21T08:38:35;9.97;;;7.03;;
14611;SDS011;7392;52.078;11.650;2024-02-21T08:41:11;15.60;;;6.90;;
14611;SDS011;7392;52.078;11.650;2024-02-21T08:43:43;12.63;;;6.87;;
14611;SDS011;7392;52.078;11.650;2024-02-21T08:46:12;12.40;;;7.23;;
14611;SDS011;7392;52.078;11.650;2024-02-21T08:48:41;14.20;;;7.27;;
14611;SDS011;7392;52.078;11.650;2024-02-21T08:51:10;13.07;;;6.97;;
14611;SDS011;7392;52.078;11.650;2024-02-21T08:53:39;14.30;;;7.47;;
14611;SDS011;7392;52.078;11.650;2024-02-21T08:56:12;10.90;;;6.93;;
14611;SDS011;7392;52.078;11.650;2024-02-21T08:58:44;9.30;;;6.53;;
14611;SDS011;7392;52.078;11.650;2024-02-21T09:01:17;12.57;;;6.93;;
14611;SDS011;7392;52.078;11.650;2024-02-21T09:03:49;13.57;;;7.23;;
14611;SDS011;7392;52.078;11.650;2024-02-21T09:06:23;12.57;;;6.73;;
14611;SDS011;7392;52.078;11.650;2024-02-21T09:08:56;13.90;;;7.23;;
14611;SDS011;7392;52.078;11.650;2024-02-21T09:11:26;12.57;;;6.90;;
14611;SDS011;7392;52.078;11.650;2024-02-21T09:13:55;12.87;;;7.17;;
14611;SDS011;7392;52.078;11.650;2024-02-21T09:16:24;13.07;;;6.80;;
14611;SDS011;7392;52.078;11.650;2024-02-21T09:19:02;12.53;;;6.77;;
14611;SDS011;7392;52.078;11.650;2024-02-21T09:21:35;10.47;;;6.70;;
14611;SDS011;7392;52.078;11.650;2024-02-21T09:24:05;10.93;;;6.40;;
14611;SDS011;7392;52.078;11.650;2024-02-21T09:26:41;11.53;;;6.30;;
14611;SDS011;7392;52.078;11.650;2024-02-21T09:29:09;11.13;;;6.60;;
14611;SDS011;7392;52.078;11.650;2024-02-21T09:31:42;9.57;;;5.87;;
14611;SDS011;7392;52.078;11.650;2024-02-21T09:34:11;12.40;;;6.80;;
14611;SDS011;7392;52.078;11.650;2024-02-21T09:36:40;15.17;;;6.60;;
14611;SDS011;7392;52.078;11.650;2024-02-21T09:39:09;11.83;;;6.37;;
14611;SDS011;7392;52.078;11.650;2024-02-21T09:41:43;12.23;;;6.07;;
14611;SDS011;7392;52.078;11.650;2024-02-21T09:44:16;9.13;;;5.60;;
14611;SDS011;7392;52.078;11.650;2024-02-21T09:46:49;10.00;;;5.60;;
14611;SDS011;7392;52.078;11.650;2024-02-21T09:49:25;10.67;;;5.47;;
14611;SDS011;7392;52.078;11.650;2024-02-21T09:52:09;10.67;;;5.27;;
14611;SDS011;7392;52.078;11.650;2024-02-21T09:54:42;11.97;;;5.63;;
14611;SDS011;7392;52.078;11.650;2024-02-21T09:57:16;9.17;;;5.07;;
14611;SDS011;7392;52.078;11.650;2024-02-21T09:59:45;7.63;;;4.63;;
14611;SDS011;7392;52.078;11.650;2024-02-21T10:02:14;8.73;;;5.63;;
14611;SDS011;7392;52.078;11.650;2024-02-21T10:04:42;8.57;;;4.57;;
14611;SDS011;7392;52.078;11.650;2024-02-21T10:07:12;7.97;;;4.80;;
14611;SDS011;7392;52.078;11.650;2024-02-21T10:09:41;9.10;;;4.67;;
14611;SDS011;7392;52.078;11.650;2024-02-21T10:12:12;6.80;;;5.10;;
14611;SDS011;7392;52.078;11.650;2024-02-21T10:17:32;5.97;;;3.73;;
14611;SDS011;7392;52.078;11.650;2024-02-21T10:20:07;7.77;;;4.47;;
14611;SDS011;7392;52.078;11.650;2024-02-21T10:22:40;9.47;;;3.87;;
14611;SDS011;7392;52.078;11.650;2024-02-21T10:25:12;6.23;;;3.53;;
14611;SDS011;7392;52.078;11.650;2024-02-21T10:27:42;4.17;;;3.23;;
14611;SDS011;7392;52.078;11.650;2024-02-21T10:30:14;6.97;;;3.53;;
14611;SDS011;7392;52.078;11.650;2024-02-21T10:32:50;5.47;;;3.57;;
14611;SDS011;7392;52.078;11.650;2024-02-21T10:35:28;8.30;;;3.97;;
14611;SDS011;7392;52.078;11.650;2024-02-21T10:37:59;6.40;;;3.20;;
14611;SDS011;7392;52.078;11.650;2024-02-21T10:40:28;7.03;;;3.50;;
14611;SDS011;7392;52.078;11.650;2024-02-21T10:42:59;6.07;;;3.47;;
14611;SDS011;7392;52.078;11.650;2024-02-21T10:45:34;8.77;;;3.70;;
14611;SDS011;7392;52.078;11.650;2024-02-21T10:48:09;8.03;;;3.57;;
14611;SDS011;7392;52.078;11.650;2024-02-21T10:50:52;6.47;;;3.07;;
14611;SDS011;7392;52.078;11.650;2024-02-21T10:53:34;6.10;;;3.00;;
14611;SDS011;7392;52.078;11.650;2024-02-21T10:56:22;4.90;;;3.17;;
14611;SDS011;7392;52.078;11.650;2024-02-21T10:59:04;5.67;;;3.17;;
14611;SDS011;7392;52.078;11.650;2024-02-21T11:01:38;5.70;;;2.80;;
14611;SDS011;7392;52.078;11.650;2024-02-21T11:04:10;7.50;;;3.70;;
14611;SDS011;7392;52.078;11.650;2024-02-21T11:06:42;8.27;;;4.20;;
14611;SDS011;7392;52.078;11.650;2024-02-21T11:09:28;6.83;;;4.00;;
14611;SDS011;7392;52.078;11.650;2024-02-21T11:11:57;10.70;;;3.97;;
14611;SDS011;7392;52.078;11.650;2024-02-21T11:14:27;8.43;;;4.27;;
14611;SDS011;7392;52.078;11.650;2024-02-21T11:17:01;8.90;;;3.73;;
14611;SDS011;7392;52.078;11.650;2024-02-21T11:19:31;7.77;;;4.03;;
14611;SDS011;7392;52.078;11.650;2024-02-21T11:22:03;7.37;;;3.87;;
14611;SDS011;7392;52.078;11.650;2024-02-21T11:24:43;7.43;;;3.73;;
14611;SDS011;7392;52.078;11.650;2024-02-21T11:27:12;7.77;;;4.40;;
14611;SDS011;7392;52.078;11.650;2024-02-21T11:29:44;8.40;;;4.30;;
14611;SDS011;7392;52.078;11.650;2024-02-21T11:32:15;9.80;;;4.50;;
14611;SDS011;7392;52.078;11.650;2024-02-21T11:34:54;8.37;;;4.53;;
14611;SDS011;7392;52.078;11.650;2024-02-21T11:37:24;6.97;;;4.20;;
14611;SDS011;7392;52.078;11.650;2024-02-21T11:39:54;7.73;;;3.70;;
14611;SDS011;7392;52.078;11.650;2024-02-21T11:42:24;7.90;;;4.47;;
14611;SDS011;7392;52.078;11.650;2024-02-21T11:44:56;6.93;;;3.57;;
14611;SDS011;7392;52.078;11.650;2024-02-21T11:47:31;7.97;;;3.13;;
14611;SDS011;7392;52.078;11.650;2024-02-21T11:50:00;6.13;;;3.87;;
14611;SDS011;7392;52.078;11.650;2024-02-21T11:52:31;7.07;;;3.83;;
14611;SDS011;7392;52.078;11.650;2024-02-21T11:55:02;7.57;;;4.00;;
14611;SDS011;7392;52.078;11.650;2024-02-21T11:57:32;7.97;;;3.53;;
14611;SDS011;7392;52.078;11.650;2024-02-21T12:00:10;7.83;;;3.60;;
14611;SDS011;7392;52.078;11.650;2024-02-21T12:02:46;7.03;;;3.73;;
14611;SDS011;7392;52.078;11.650;2024-02-21T12:05:18;8.63;;;3.90;;
14611;SDS011;7392;52.078;11.650;2024-02-21T12:07:48;8.63;;;4.67;;
14611;SDS011;7392;52.078;11.650;2024-02-21T12:10:19;8.10;;;3.83;;
14611;SDS011;7392;52.078;11.650;2024-02-21T12:12:48;7.07;;;4.00;;
14611;SDS011;7392;52.078;11.650;2024-02-21T12:15:18;9.27;;;4.10;;
14611;SDS011;7392;52.078;11.650;2024-02-21T12:17:49;8.23;;;3.90;;
14611;SDS011;7392;52.078;11.650;2024-02-21T12:20:20;6.73;;;3.50;;
14611;SDS011;7392;52.078;11.650;2024-02-21T12:22:55;6.83;;;3.83;;
14611;SDS011;7392;52.078;11.650;2024-02-21T12:25:30;8.50;;;3.60;;
14611;SDS011;7392;52.078;11.650;2024-02-21T12:27:58;8.27;;;4.40;;
14611;SDS011;7392;52.078;11.650;2024-02-21T12:30:30;5.53;;;3.47;;
14611;SDS011;7392;52.078;11.650;2024-02-21T12:33:03;6.73;;;3.60;;
14611;SDS011;7392;52.078;11.650;2024-02-21T12:35:35;5.53;;;3.40;;
14611;SDS011;7392;52.078;11.650;2024-02-21T12:38:07;7.00;;;3.90;;
14611;SDS011;7392;52.078;11.650;2024-02-21T12:40:36;7.97;;;3.80;;
14611;SDS011;7392;52.078;11.650;2024-02-21T12:43:05;8.50;;;3.90;;
14611;SDS011;7392;52.078;11.650;2024-02-21T12:45:34;7.67;;;3.73;;
14611;SDS011;7392;52.078;11.650;2024-02-21T12:48:07;10.13;;;4.03;;
14611;SDS011;7392;52.078;11.650;2024-02-21T12:50:36;7.50;;;4.00;;
14611;SDS011;7392;52.078;11.650;2024-02-21T12:53:07;9.87;;;3.83;;
14611;SDS011;7392;52.078;11.650;2024-02-21T12:55:51;7.60;;;3.53;;
14611;SDS011;7392;52.078;11.650;2024-02-21T12:58:24;8.23;;;3.87;;
14611;SDS011;7392;52.078;11.650;2024-02-21T13:00:53;10.27;;;3.90;;
14611;SDS011;7392;52.078;11.650;2024-02-21T13:03:23;6.97;;;3.87;;
14611;SDS011;7392;52.078;11.650;2024-02-21T13:05:54;11.60;;;3.57;;
14611;SDS011;7392;52.078;11.650;2024-02-21T13:08:22;7.10;;;2.90;;
14611;SDS011;7392;52.078;11.650;2024-02-21T13:10:51;9.03;;;3.40;;
14611;SDS011;7392;52.078;11.650;2024-02-21T13:13:21;9.00;;;3.67;;
14611;SDS011;7392;52.078;11.650;2024-02-21T13:15:53;8.73;;;3.50;;
14611;SDS011;7392;52.078;11.650;2024-02-21T13:18:24;5.97;;;3.50;;
14611;SDS011;7392;52.078;11.650;2024-02-21T13:20:53;3.77;;;2.73;;
14611;SDS011;7392;52.078;11.650;2024-02-21T13:23:27;5.37;;;2.80;;
14611;SDS011;7392;52.078;11.650;2024-02-21T13:25:56;7.27;;;3.13;;
14611;SDS011;7392;52.078;11.650;2024-02-21T13:28:29;7.00;;;2.90;;
14611;SDS011;7392;52.078;11.650;2024-02-21T13:30:58;5.43;;;3.23;;
14611;SDS011;7392;52.078;11.650;2024-02-21T13:33:28;7.73;;;3.30;;
14611;SDS011;7392;52.078;11.650;2024-02-21T13:36:07;9.63;;;3.90;;
14611;SDS011;7392;52.078;11.650;2024-02-21T13:38:37;5.23;;;3.23;;
14611;SDS011;7392;52.078;11.650;2024-02-21T13:41:11;6.60;;;2.90;;
14611;SDS011;7392;52.078;11.650;2024-02-21T13:43:44;7.87;;;3.40;;
14611;SDS011;7392;52.078;11.650;2024-02-21T13:46:16;5.13;;;2.97;;
14611;SDS011;7392;52.078;11.650;2024-02-21T13:48:47;5.03;;;2.90;;
14611;SDS011;7392;52.078;11.650;2024-02-21T13:51:17;6.97;;;2.77;;
14611;SDS011;7392;52.078;11.650;2024-02-21T13:53:48;5.07;;;2.93;;
14611;SDS011;7392;52.078;11.650;2024-02-21T13:56:19;4.90;;;2.57;;
14611;SDS011;7392;52.078;11.650;2024-02-21T13:58:50;5.80;;;2.80;;
14611;SDS011;7392;52.078;11.650;2024-02-21T14:01:22;7.20;;;2.60;;
14611;SDS011;7392;52.078;11.650;2024-02-21T14:03:52;7.17;;;3.27;;
14611;SDS011;7392;52.078;11.650;2024-02-21T14:06:23;6.17;;;2.77;;
14611;SDS011;7392;52.078;11.650;2024-02-21T14:08:57;4.60;;;2.60;;
14611;SDS011;7392;52.078;11.650;2024-02-21T14:11:26;5.10;;;2.50;;
14611;SDS011;7392;52.078;11.650;2024-02-21T14:13:58;5.80;;;2.53;;
14611;SDS011;7392;52.078;11.650;2024-02-21T14:16:28;5.60;;;2.57;;
14611;SDS011;7392;52.078;11.650;2024-02-21T14:19:01;6.17;;;2.93;;
14611;SDS011;7392;52.078;11.650;2024-02-21T14:21:30;4.33;;;2.53;;
14611;SDS011;7392;52.078;11.650;2024-02-21T14:23:58;7.43;;;2.67;;
14611;SDS011;7392;52.078;11.650;2024-02-21T14:26:29;3.87;;;2.37;;
14611;SDS011;7392;52.078;11.650;2024-02-21T14:28:58;4.67;;;2.57;;
14611;SDS011;7392;52.078;11.650;2024-02-21T14:31:27;5.17;;;2.60;;
14611;SDS011;7392;52.078;11.650;2024-02-21T14:33:55;3.27;;;2.10;;
14611;SDS011;7392;52.078;11.650;2024-02-21T14:36:26;4.67;;;2.47;;
14611;SDS011;7392;52.078;11.650;2024-02-21T14:38:54;5.20;;;2.37;;
14611;SDS011;7392;52.078;11.650;2024-02-21T14:41:25;5.67;;;2.47;;
14611;SDS011;7392;52.078;11.650;2024-02-21T14:43:59;3.80;;;2.10;;
14611;SDS011;7392;52.078;11.650;2024-02-21T14:46:36;4.30;;;2.43;;
14611;SDS011;7392;52.078;11.650;2024-02-21T14:49:06;6.33;;;3.20;;
14611;SDS011;7392;52.078;11.650;2024-02-21T14:51:36;6.47;;;3.63;;
14611;SDS011;7392;52.078;11.650;2024-02-21T14:54:04;5.87;;;3.50;;
14611;SDS011;7392;52.078;11.650;2024-02-21T14:56:38;4.17;;;2.70;;
14611;SDS011;7392;52.078;11.650;2024-02-21T14:59:11;6.60;;;2.67;;
14611;SDS011;7392;52.078;11.650;2024-02-21T15:01:58;6.20;;;2.90;;
14611;SDS011;7392;52.078;11.650;2024-02-21T15:04:32;5.40;;;2.40;;
14611;SDS011;7392;52.078;11.650;2024-02-21T15:07:04;6.50;;;2.87;;